createdAt,value
2019-05-01T00:00:15.950Z,1011.37
2019-05-01T00:01:07.414Z,1011.35
2019-05-01T00:02:07.403Z,1011.37
2019-05-01T00:03:07.407Z,1011.35
2019-05-01T00:04:07.396Z,1011.34
2019-05-01T00:05:07.388Z,1011.32
2019-05-01T00:06:07.392Z,1011.28
2019-05-01T00:07:07.385Z,1011.28
2019-05-01T00:08:07.382Z,1011.25
2019-05-01T00:09:07.369Z,1011.26
2019-05-01T00:10:07.369Z,1011.26
2019-05-01T00:11:07.359Z,1011.30
2019-05-01T00:12:07.353Z,1011.35
2019-05-01T00:13:07.349Z,1011.32
2019-05-01T00:14:07.346Z,1011.32
2019-05-01T00:15:07.341Z,1011.34
2019-05-01T00:16:07.332Z,1011.35
2019-05-01T00:17:07.333Z,1011.34
2019-05-01T00:18:07.325Z,1011.32
2019-05-01T00:19:07.318Z,1011.31
2019-05-01T00:20:07.315Z,1011.29
2019-05-01T00:21:07.315Z,1011.26
2019-05-01T00:22:07.307Z,1011.25
2019-05-01T00:23:07.301Z,1011.21
2019-05-01T00:24:07.297Z,1011.17
2019-05-01T00:25:07.287Z,1011.17
2019-05-01T00:26:07.290Z,1011.11
2019-05-01T00:27:07.280Z,1011.13
2019-05-01T00:28:07.280Z,1011.12
2019-05-01T00:29:07.273Z,1011.11
2019-05-01T00:30:07.268Z,1011.11
2019-05-01T00:31:07.258Z,1011.10
2019-05-01T00:32:07.256Z,1011.07
2019-05-01T00:33:07.256Z,1011.07
2019-05-01T00:34:07.248Z,1011.05
2019-05-01T00:35:07.241Z,1011.03
2019-05-01T00:36:07.233Z,1011.02
2019-05-01T00:37:07.228Z,1011.01
2019-05-01T00:38:07.230Z,1011.02
2019-05-01T00:39:07.219Z,1011.05
2019-05-01T00:40:07.222Z,1011.01
2019-05-01T00:41:07.210Z,1010.97
2019-05-01T00:42:07.205Z,1010.97
2019-05-01T00:43:07.203Z,1010.98
2019-05-01T00:44:07.199Z,1011.00
2019-05-01T00:45:07.189Z,1011.02
2019-05-01T00:46:07.188Z,1011.02
2019-05-01T00:47:07.183Z,1011.01
2019-05-01T00:48:07.176Z,1011.01
2019-05-01T00:49:07.171Z,1010.99
2019-05-01T00:50:07.162Z,1010.97
2019-05-01T00:51:07.161Z,1010.95
2019-05-01T00:52:07.156Z,1010.91
2019-05-01T00:53:07.151Z,1010.93
2019-05-01T00:54:07.146Z,1010.88
2019-05-01T00:55:07.145Z,1010.86
2019-05-01T00:56:07.136Z,1010.86
2019-05-01T00:57:07.133Z,1010.88
2019-05-01T00:58:07.127Z,1010.82
2019-05-01T00:59:07.118Z,1010.85
2019-05-01T01:00:07.116Z,1010.84
2019-05-01T01:01:07.131Z,1010.84
2019-05-01T01:02:07.107Z,1010.83
2019-05-01T01:03:07.102Z,1010.81
2019-05-01T01:04:07.097Z,1010.80
2019-05-01T01:05:07.090Z,1010.88
2019-05-01T01:07:07.080Z,1010.88
2019-05-01T01:08:07.078Z,1010.85
2019-05-01T01:09:07.071Z,1010.88
2019-05-01T01:10:07.061Z,1010.86
2019-05-01T01:11:07.062Z,1010.83
2019-05-01T01:12:07.055Z,1010.85
2019-05-01T01:13:07.050Z,1010.82
2019-05-01T01:14:07.040Z,1010.82
2019-05-01T01:15:07.044Z,1010.78
2019-05-01T01:16:07.033Z,1010.78
2019-05-01T01:17:07.026Z,1010.79
2019-05-01T01:18:07.029Z,1010.76
2019-05-01T01:19:07.017Z,1010.75
2019-05-01T01:20:07.014Z,1010.78
2019-05-01T01:21:07.011Z,1010.76
2019-05-01T01:22:07.005Z,1010.79
2019-05-01T01:23:07.003Z,1010.75
2019-05-01T01:24:06.992Z,1010.71
2019-05-01T01:25:06.985Z,1010.72
2019-05-01T01:26:06.979Z,1010.72
2019-05-01T01:27:06.981Z,1010.74
2019-05-01T01:28:06.972Z,1010.73
2019-05-01T01:29:06.971Z,1010.76
2019-05-01T01:30:06.964Z,1010.78
2019-05-01T01:31:06.963Z,1010.83
2019-05-01T01:32:06.956Z,1010.77
2019-05-01T01:33:06.949Z,1010.82
2019-05-01T01:34:06.946Z,1010.79
2019-05-01T01:35:06.941Z,1010.80
2019-05-01T01:36:06.934Z,1010.77
2019-05-01T01:37:06.930Z,1010.71
2019-05-01T01:38:06.924Z,1010.71
2019-05-01T01:39:06.920Z,1010.65
2019-05-01T01:40:06.914Z,1010.67
2019-05-01T01:41:06.911Z,1010.62
2019-05-01T01:42:06.906Z,1010.67
2019-05-01T01:43:06.904Z,1010.63
2019-05-01T01:44:06.894Z,1010.65
2019-05-01T01:45:06.887Z,1010.64
2019-05-01T01:46:06.883Z,1010.64
2019-05-01T01:47:06.882Z,1010.66
2019-05-01T01:48:06.880Z,1010.67
2019-05-01T01:49:06.869Z,1010.68
2019-05-01T01:50:06.868Z,1010.67
2019-05-01T01:51:06.858Z,1010.67
2019-05-01T01:52:06.852Z,1010.67
2019-05-01T01:53:06.851Z,1010.65
2019-05-01T01:54:06.848Z,1010.64
2019-05-01T01:55:06.888Z,1010.65
2019-05-01T01:56:06.835Z,1010.63
2019-05-01T01:57:06.829Z,1010.60
2019-05-01T01:58:06.826Z,1010.60
2019-05-01T01:59:06.823Z,1010.61
2019-05-01T02:00:06.811Z,1010.61
2019-05-01T02:01:09.584Z,1010.59
2019-05-01T02:02:06.803Z,1010.58
2019-05-01T02:03:06.799Z,1010.58
2019-05-01T02:04:06.796Z,1010.62
2019-05-01T02:05:06.805Z,1010.61
2019-05-01T02:06:06.783Z,1010.62
2019-05-01T02:07:06.779Z,1010.63
2019-05-01T02:08:08.942Z,1010.65
2019-05-01T02:09:06.770Z,1010.59
2019-05-01T02:10:06.829Z,1010.63
2019-05-01T02:11:06.755Z,1010.60
2019-05-01T02:12:06.756Z,1010.60
2019-05-01T02:13:06.752Z,1010.55
2019-05-01T02:14:06.743Z,1010.55
2019-05-01T02:15:06.736Z,1010.60
2019-05-01T02:16:06.739Z,1010.55
2019-05-01T02:17:06.730Z,1010.60
2019-05-01T02:18:06.723Z,1010.53
2019-05-01T02:19:06.718Z,1010.58
2019-05-01T02:20:06.728Z,1010.57
2019-05-01T02:21:06.714Z,1010.56
2019-05-01T02:22:06.700Z,1010.54
2019-05-01T02:23:06.695Z,1010.56
2019-05-01T02:24:06.697Z,1010.56
2019-05-01T02:25:06.686Z,1010.60
2019-05-01T02:26:06.681Z,1010.56
2019-05-01T02:27:06.678Z,1010.56
2019-05-01T02:28:06.671Z,1010.54
2019-05-01T02:29:06.667Z,1010.54
2019-05-01T02:30:06.668Z,1010.51
2019-05-01T02:31:06.662Z,1010.52
2019-05-01T02:32:06.657Z,1010.51
2019-05-01T02:33:06.650Z,1010.51
2019-05-01T02:34:06.653Z,1010.48
2019-05-01T02:35:06.643Z,1010.50
2019-05-01T02:36:06.636Z,1010.48
2019-05-01T02:37:06.634Z,1010.51
2019-05-01T02:38:06.620Z,1010.49
2019-05-01T02:39:06.618Z,1010.47
2019-05-01T02:40:06.617Z,1010.51
2019-05-01T02:41:06.610Z,1010.49
2019-05-01T02:42:06.614Z,1010.46
2019-05-01T02:43:06.599Z,1010.44
2019-05-01T02:44:06.594Z,1010.45
2019-05-01T02:45:06.584Z,1010.45
2019-05-01T02:46:06.584Z,1010.45
2019-05-01T02:47:06.578Z,1010.46
2019-05-01T02:48:06.569Z,1010.46
2019-05-01T02:49:06.653Z,1010.47
2019-05-01T02:50:06.565Z,1010.44
2019-05-01T02:51:06.561Z,1010.43
2019-05-01T02:52:06.556Z,1010.44
2019-05-01T02:53:06.551Z,1010.45
2019-05-01T02:54:06.550Z,1010.43
2019-05-01T02:55:06.538Z,1010.41
2019-05-01T02:56:06.532Z,1010.40
2019-05-01T02:57:06.523Z,1010.39
2019-05-01T02:58:06.516Z,1010.41
2019-05-01T02:59:06.518Z,1010.38
2019-05-01T03:00:06.512Z,1010.39
2019-05-01T03:01:06.509Z,1010.37
2019-05-01T03:02:06.501Z,1010.42
2019-05-01T03:03:06.495Z,1010.42
2019-05-01T03:04:06.499Z,1010.44
2019-05-01T03:05:06.491Z,1010.45
2019-05-01T03:06:06.476Z,1010.42
2019-05-01T03:07:06.475Z,1010.43
2019-05-01T03:08:06.474Z,1010.37
2019-05-01T03:09:06.469Z,1010.37
2019-05-01T03:10:09.385Z,1010.37
2019-05-01T03:11:06.452Z,1010.35
2019-05-01T03:12:06.447Z,1010.32
2019-05-01T03:13:06.449Z,1010.34
2019-05-01T03:14:06.439Z,1010.35
2019-05-01T03:15:06.439Z,1010.35
2019-05-01T03:16:06.435Z,1010.33
2019-05-01T03:17:06.433Z,1010.32
2019-05-01T03:18:06.418Z,1010.29
2019-05-01T03:19:06.412Z,1010.30
2019-05-01T03:20:06.411Z,1010.30
2019-05-01T03:21:06.401Z,1010.26
2019-05-01T03:22:06.403Z,1010.29
2019-05-01T03:23:06.401Z,1010.31
2019-05-01T03:24:06.388Z,1010.27
2019-05-01T03:25:06.385Z,1010.31
2019-05-01T03:26:06.434Z,1010.30
2019-05-01T03:27:06.371Z,1010.27
2019-05-01T03:28:06.369Z,1010.27
2019-05-01T03:29:06.360Z,1010.24
2019-05-01T03:30:06.360Z,1010.23
2019-05-01T03:31:06.354Z,1010.28
2019-05-01T03:32:17.809Z,1010.28
2019-05-01T03:33:06.343Z,1010.26
2019-05-01T03:34:06.338Z,1010.28
2019-05-01T03:35:06.333Z,1010.22
2019-05-01T03:36:06.399Z,1010.20
2019-05-01T03:37:06.318Z,1010.18
2019-05-01T03:38:06.318Z,1010.17
2019-05-01T03:39:06.308Z,1010.16
2019-05-01T03:40:06.301Z,1010.18
2019-05-01T03:41:06.306Z,1010.22
2019-05-01T03:42:06.299Z,1010.21
2019-05-01T03:43:06.295Z,1010.19
2019-05-01T03:44:06.289Z,1010.22
2019-05-01T03:45:06.278Z,1010.18
2019-05-01T03:46:06.279Z,1010.19
2019-05-01T03:47:06.271Z,1010.17
2019-05-01T03:48:06.271Z,1010.14
2019-05-01T03:49:06.263Z,1010.15
2019-05-01T03:50:06.259Z,1010.19
2019-05-01T03:51:06.246Z,1010.18
2019-05-01T03:52:06.246Z,1010.16
2019-05-01T03:53:06.239Z,1010.18
2019-05-01T03:54:06.232Z,1010.13
2019-05-01T03:55:06.228Z,1010.14
2019-05-01T03:56:06.222Z,1010.16
2019-05-01T03:57:06.217Z,1010.13
2019-05-01T03:58:06.209Z,1010.16
2019-05-01T03:59:06.206Z,1010.13
2019-05-01T04:00:06.209Z,1010.17
2019-05-01T04:01:06.195Z,1010.15
2019-05-01T04:02:06.191Z,1010.15
2019-05-01T04:03:06.187Z,1010.18
2019-05-01T04:04:06.183Z,1010.18
2019-05-01T04:05:06.182Z,1010.20
2019-05-01T04:06:06.175Z,1010.14
2019-05-01T04:07:06.173Z,1010.18
2019-05-01T04:08:06.165Z,1010.12
2019-05-01T04:09:06.158Z,1010.14
2019-05-01T04:10:06.155Z,1010.10
2019-05-01T04:11:06.150Z,1010.11
2019-05-01T04:12:06.139Z,1010.13
2019-05-01T04:13:06.138Z,1010.12
2019-05-01T04:14:06.128Z,1010.09
2019-05-01T04:15:06.138Z,1010.16
2019-05-01T04:16:06.120Z,1010.17
2019-05-01T04:17:06.122Z,1010.18
2019-05-01T04:18:06.111Z,1010.13
2019-05-01T04:19:06.105Z,1010.14
2019-05-01T04:20:06.100Z,1010.18
2019-05-01T04:21:06.096Z,1010.17
2019-05-01T04:22:06.086Z,1010.18
2019-05-01T04:23:06.088Z,1010.16
2019-05-01T04:24:06.083Z,1010.17
2019-05-01T04:25:06.079Z,1010.19
2019-05-01T04:26:06.073Z,1010.17
2019-05-01T04:27:06.069Z,1010.19
2019-05-01T04:28:06.060Z,1010.17
2019-05-01T04:29:06.052Z,1010.15
2019-05-01T04:30:06.052Z,1010.19
2019-05-01T04:31:06.039Z,1010.19
2019-05-01T04:32:06.044Z,1010.19
2019-05-01T04:33:06.034Z,1010.16
2019-05-01T04:34:06.033Z,1010.16
2019-05-01T04:35:06.025Z,1010.17
2019-05-01T04:36:06.022Z,1010.19
2019-05-01T04:37:06.009Z,1010.18
2019-05-01T04:38:06.010Z,1010.24
2019-05-01T04:39:06.011Z,1010.21
2019-05-01T04:40:05.996Z,1010.22
2019-05-01T04:41:05.992Z,1010.27
2019-05-01T04:42:05.986Z,1010.24
2019-05-01T04:43:05.985Z,1010.30
2019-05-01T04:44:05.997Z,1010.30
2019-05-01T04:45:05.975Z,1010.28
2019-05-01T04:46:05.966Z,1010.33
2019-05-01T04:47:05.965Z,1010.29
2019-05-01T04:48:05.954Z,1010.32
2019-05-01T04:49:05.952Z,1010.30
2019-05-01T04:50:05.947Z,1010.29
2019-05-01T04:51:05.945Z,1010.31
2019-05-01T04:52:05.940Z,1010.32
2019-05-01T04:53:05.936Z,1010.30
2019-05-01T04:54:05.929Z,1010.33
2019-05-01T04:55:05.917Z,1010.36
2019-05-01T04:56:05.917Z,1010.40
2019-05-01T04:57:05.914Z,1010.37
2019-05-01T04:58:05.902Z,1010.35
2019-05-01T04:59:05.903Z,1010.38
2019-05-01T05:00:05.892Z,1010.38
2019-05-01T05:01:05.894Z,1010.38
2019-05-01T05:02:05.882Z,1010.36
2019-05-01T05:03:05.879Z,1010.35
2019-05-01T05:04:05.872Z,1010.37
2019-05-01T05:05:05.875Z,1010.42
2019-05-01T05:06:05.869Z,1010.40
2019-05-01T05:07:05.859Z,1010.43
2019-05-01T05:08:05.853Z,1010.37
2019-05-01T05:09:05.849Z,1010.37
2019-05-01T05:10:05.845Z,1010.35
2019-05-01T05:11:05.849Z,1010.39
2019-05-01T05:12:05.838Z,1010.40
2019-05-01T05:13:05.830Z,1010.43
2019-05-01T05:14:05.821Z,1010.44
2019-05-01T05:15:05.823Z,1010.41
2019-05-01T05:16:05.816Z,1010.41
2019-05-01T05:17:05.810Z,1010.42
2019-05-01T05:18:05.810Z,1010.40
2019-05-01T05:19:05.796Z,1010.39
2019-05-01T05:20:05.791Z,1010.38
2019-05-01T05:21:05.791Z,1010.38
2019-05-01T05:22:05.783Z,1010.43
2019-05-01T05:23:05.784Z,1010.41
2019-05-01T05:24:05.774Z,1010.42
2019-05-01T05:25:05.765Z,1010.44
2019-05-01T05:26:05.767Z,1010.48
2019-05-01T05:27:05.756Z,1010.42
2019-05-01T05:28:05.756Z,1010.47
2019-05-01T05:29:05.752Z,1010.42
2019-05-01T05:30:05.743Z,1010.43
2019-05-01T05:31:05.741Z,1010.47
2019-05-01T05:32:05.738Z,1010.50
2019-05-01T05:33:17.796Z,1010.48
2019-05-01T05:34:05.728Z,1010.49
2019-05-01T05:35:05.723Z,1010.46
2019-05-01T05:36:05.711Z,1010.49
2019-05-01T05:37:05.713Z,1010.47
2019-05-01T05:38:05.703Z,1010.50
2019-05-01T05:39:05.695Z,1010.44
2019-05-01T05:40:05.706Z,1010.49
2019-05-01T05:41:05.693Z,1010.45
2019-05-01T05:42:05.688Z,1010.45
2019-05-01T05:43:05.684Z,1010.45
2019-05-01T05:44:05.672Z,1010.46
2019-05-01T05:45:05.674Z,1010.45
2019-05-01T05:46:05.666Z,1010.43
2019-05-01T05:47:05.665Z,1010.46
2019-05-01T05:48:05.653Z,1010.48
2019-05-01T05:49:05.652Z,1010.46
2019-05-01T05:50:05.645Z,1010.47
2019-05-01T05:51:05.642Z,1010.50
2019-05-01T05:52:05.633Z,1010.48
2019-05-01T05:53:05.629Z,1010.46
2019-05-01T05:54:05.627Z,1010.40
2019-05-01T05:55:05.625Z,1010.44
2019-05-01T05:56:05.621Z,1010.46
2019-05-01T05:57:05.609Z,1010.45
2019-05-01T05:58:05.612Z,1010.45
2019-05-01T05:59:05.606Z,1010.44
2019-05-01T06:00:05.601Z,1010.46
2019-05-01T06:01:05.597Z,1010.47
2019-05-01T06:02:05.588Z,1010.42
2019-05-01T06:03:05.586Z,1010.41
2019-05-01T06:04:05.585Z,1010.43
2019-05-01T06:05:05.577Z,1010.47
2019-05-01T06:06:05.564Z,1010.48
2019-05-01T06:07:05.575Z,1010.47
2019-05-01T06:08:05.561Z,1010.46
2019-05-01T06:09:09.044Z,1010.46
2019-05-01T06:10:05.546Z,1010.48
2019-05-01T06:11:05.547Z,1010.41
2019-05-01T06:12:08.975Z,1010.42
2019-05-01T06:13:05.536Z,1010.40
2019-05-01T06:14:05.535Z,1010.40
2019-05-01T06:15:06.355Z,1010.40
2019-05-01T06:16:05.520Z,1010.39
2019-05-01T06:17:05.516Z,1010.40
2019-05-01T06:18:05.922Z,1010.42
2019-05-01T06:19:05.517Z,1010.47
2019-05-01T06:20:05.510Z,1010.41
2019-05-01T06:21:05.504Z,1010.40
2019-05-01T06:22:10.125Z,1010.41
2019-05-01T06:23:05.492Z,1010.38
2019-05-01T06:24:06.495Z,1010.37
2019-05-01T06:25:05.489Z,1010.42
2019-05-01T06:26:05.476Z,1010.42
2019-05-01T06:27:08.989Z,1010.41
2019-05-01T06:28:05.466Z,1010.39
2019-05-01T06:29:05.462Z,1010.41
2019-05-01T06:30:06.538Z,1010.42
2019-05-01T06:31:05.453Z,1010.38
2019-05-01T06:32:05.449Z,1010.41
2019-05-01T06:33:09.430Z,1010.39
2019-05-01T06:34:05.447Z,1010.40
2019-05-01T06:35:05.445Z,1010.42
2019-05-01T06:36:08.765Z,1010.42
2019-05-01T06:37:05.433Z,1010.41
2019-05-01T06:38:05.440Z,1010.38
2019-05-01T06:39:06.985Z,1010.39
2019-05-01T06:40:05.423Z,1010.36
2019-05-01T06:41:05.420Z,1010.36
2019-05-01T06:42:05.414Z,1010.38
2019-05-01T06:43:05.403Z,1010.39
2019-05-01T06:44:07.560Z,1010.36
2019-05-01T06:45:05.396Z,1010.38
2019-05-01T06:46:05.393Z,1010.40
2019-05-01T06:47:05.388Z,1010.40
2019-05-01T06:48:05.388Z,1010.38
2019-05-01T06:49:07.042Z,1010.34
2019-05-01T06:50:05.998Z,1010.38
2019-05-01T06:51:05.372Z,1010.41
2019-05-01T06:52:05.365Z,1010.42
2019-05-01T06:53:06.440Z,1010.46
2019-05-01T06:54:05.359Z,1010.45
2019-05-01T06:55:05.360Z,1010.46
2019-05-01T06:56:05.352Z,1010.47
2019-05-01T06:57:05.354Z,1010.45
2019-05-01T06:58:05.343Z,1010.42
2019-05-01T06:59:05.339Z,1010.46
2019-05-01T07:00:08.224Z,1010.44
2019-05-01T07:01:05.336Z,1010.46
2019-05-01T07:02:05.332Z,1010.44
2019-05-01T07:03:05.945Z,1010.46
2019-05-01T07:04:05.317Z,1010.45
2019-05-01T07:05:09.060Z,1010.48
2019-05-01T07:06:14.171Z,1010.49
2019-05-01T07:07:06.778Z,1010.43
2019-05-01T07:08:05.302Z,1010.48
2019-05-01T07:09:06.919Z,1010.47
2019-05-01T07:10:05.302Z,1010.47
2019-05-01T07:11:05.295Z,1010.49
2019-05-01T07:12:05.296Z,1010.50
2019-05-01T07:13:06.552Z,1010.51
2019-05-01T07:14:05.284Z,1010.49
2019-05-01T07:15:05.285Z,1010.52
2019-05-01T07:16:05.282Z,1010.54
2019-05-01T07:17:08.924Z,1010.52
2019-05-01T07:18:05.275Z,1010.59
2019-05-01T07:19:06.061Z,1010.60
2019-05-01T07:20:05.261Z,1010.58
2019-05-01T07:21:05.265Z,1010.55
2019-05-01T07:22:06.335Z,1010.57
2019-05-01T07:23:05.250Z,1010.56
2019-05-01T07:24:05.254Z,1010.50
2019-05-01T07:25:05.338Z,1010.50
2019-05-01T07:26:05.244Z,1010.51
2019-05-01T07:27:05.239Z,1010.52
2019-05-01T07:28:05.238Z,1010.55
2019-05-01T07:29:05.984Z,1010.58
2019-05-01T07:30:05.231Z,1010.56
2019-05-01T07:31:05.560Z,1010.54
2019-05-01T07:32:06.395Z,1010.50
2019-05-01T07:33:05.224Z,1010.53
2019-05-01T07:34:16.047Z,1010.52
2019-05-01T07:35:05.210Z,1010.52
2019-05-01T07:36:07.104Z,1010.55
2019-05-01T07:37:05.206Z,1010.53
2019-05-01T07:38:05.204Z,1010.51
2019-05-01T07:39:05.197Z,1010.56
2019-05-01T07:40:05.196Z,1010.53
2019-05-01T07:41:05.278Z,1010.53
2019-05-01T07:42:07.783Z,1010.51
2019-05-01T07:43:05.189Z,1010.52
2019-05-01T07:44:05.188Z,1010.52
2019-05-01T07:45:08.361Z,1010.52
2019-05-01T07:46:05.175Z,1010.52
2019-05-01T07:47:05.175Z,1010.53
2019-05-01T07:48:05.574Z,1010.53
2019-05-01T07:49:05.173Z,1010.49
2019-05-01T07:50:05.166Z,1010.50
2019-05-01T07:51:07.008Z,1010.49
2019-05-01T07:52:05.161Z,1010.50
2019-05-01T07:53:05.155Z,1010.49
2019-05-01T07:54:08.890Z,1010.51
2019-05-01T07:55:05.156Z,1010.50
2019-05-01T07:56:05.146Z,1010.50
2019-05-01T07:57:05.145Z,1010.48
2019-05-01T07:58:05.148Z,1010.45
2019-05-01T07:59:05.137Z,1010.46
2019-05-01T08:00:08.329Z,1010.44
2019-05-01T08:01:05.131Z,1010.46
2019-05-01T08:02:05.133Z,1010.46
2019-05-01T08:03:07.154Z,1010.43
2019-05-01T08:04:05.128Z,1010.39
2019-05-01T08:05:10.021Z,1010.38
2019-05-01T08:06:05.131Z,1010.41
2019-05-01T08:07:05.115Z,1010.42
2019-05-01T08:08:07.945Z,1010.40
2019-05-01T08:09:05.116Z,1010.41
2019-05-01T08:10:05.107Z,1010.43
2019-05-01T08:11:09.741Z,1010.46
2019-05-01T08:12:05.103Z,1010.44
2019-05-01T08:13:05.097Z,1010.42
2019-05-01T08:14:07.489Z,1010.40
2019-05-01T08:15:05.096Z,1010.38
2019-05-01T08:16:07.239Z,1010.41
2019-05-01T08:17:05.086Z,1010.46
2019-05-01T08:18:05.090Z,1010.46
2019-05-01T08:19:05.886Z,1010.49
2019-05-01T08:20:05.079Z,1010.43
2019-05-01T08:21:05.083Z,1010.43
2019-05-01T08:22:05.075Z,1010.41
2019-05-01T08:23:07.612Z,1010.43
2019-05-01T08:24:05.076Z,1010.45
2019-05-01T08:25:05.077Z,1010.40
2019-05-01T08:26:08.783Z,1010.40
2019-05-01T08:27:05.067Z,1010.43
2019-05-01T08:28:05.066Z,1010.42
2019-05-01T08:29:06.907Z,1010.43
2019-05-01T08:30:05.059Z,1010.39
2019-05-01T08:31:05.058Z,1010.47
2019-05-01T08:32:05.054Z,1010.44
2019-05-01T08:33:05.048Z,1010.47
2019-05-01T08:34:05.046Z,1010.45
2019-05-01T08:35:05.050Z,1010.47
2019-05-01T08:36:06.827Z,1010.45
2019-05-01T08:37:06.559Z,1010.46
2019-05-01T08:38:05.044Z,1010.48
2019-05-01T08:39:09.001Z,1010.44
2019-05-01T08:40:05.037Z,1010.45
2019-05-01T08:41:05.031Z,1010.46
2019-05-01T08:42:06.967Z,1010.48
2019-05-01T08:43:05.027Z,1010.46
2019-05-01T08:44:05.024Z,1010.45
2019-05-01T08:45:06.809Z,1010.49
2019-05-01T08:46:05.018Z,1010.47
2019-05-01T08:47:05.014Z,1010.49
2019-05-01T08:48:05.015Z,1010.47
2019-05-01T08:49:06.745Z,1010.48
2019-05-01T08:50:05.008Z,1010.50
2019-05-01T08:51:05.006Z,1010.43
2019-05-01T08:52:12.529Z,1010.43
2019-05-01T08:53:05.008Z,1010.46
2019-05-01T08:54:04.999Z,1010.46
2019-05-01T08:55:09.408Z,1010.50
2019-05-01T08:56:04.994Z,1010.51
2019-05-01T08:57:07.783Z,1010.50
2019-05-01T08:58:08.923Z,1010.45
2019-05-01T08:59:04.988Z,1010.45
2019-05-01T09:00:04.990Z,1010.42
2019-05-01T09:01:04.983Z,1010.45
2019-05-01T09:02:09.500Z,1010.46
2019-05-01T09:03:08.444Z,1010.48
2019-05-01T09:04:12.573Z,1010.47
2019-05-01T09:05:07.216Z,1010.46
2019-05-01T09:06:04.980Z,1010.45
2019-05-01T09:07:04.974Z,1010.43
2019-05-01T09:08:04.973Z,1010.43
2019-05-01T09:09:08.324Z,1010.44
2019-05-01T09:10:04.973Z,1010.45
2019-05-01T09:11:04.965Z,1010.45
2019-05-01T09:12:06.836Z,1010.42
2019-05-01T09:13:04.970Z,1010.40
2019-05-01T09:14:04.967Z,1010.42
2019-05-01T09:15:07.185Z,1010.42
2019-05-01T09:16:04.963Z,1010.38
2019-05-01T09:17:04.958Z,1010.44
2019-05-01T09:18:04.960Z,1010.40
2019-05-01T09:19:04.957Z,1010.38
2019-05-01T09:20:04.961Z,1010.40
2019-05-01T09:21:04.959Z,1010.41
2019-05-01T09:22:04.956Z,1010.43
2019-05-01T09:23:04.955Z,1010.45
2019-05-01T09:24:04.957Z,1010.43
2019-05-01T09:25:04.949Z,1010.43
2019-05-01T09:26:06.719Z,1010.42
2019-05-01T09:27:04.953Z,1010.43
2019-05-01T09:28:06.039Z,1010.37
2019-05-01T09:29:04.946Z,1010.40
2019-05-01T09:30:04.950Z,1010.36
2019-05-01T09:31:04.949Z,1010.35
2019-05-01T09:32:09.679Z,1010.34
2019-05-01T09:33:04.949Z,1010.34
2019-05-01T09:34:04.957Z,1010.31
2019-05-01T09:35:15.110Z,1010.33
2019-05-01T09:36:04.948Z,1010.35
2019-05-01T09:37:04.944Z,1010.32
2019-05-01T09:38:04.955Z,1010.31
2019-05-01T09:39:04.945Z,1010.26
2019-05-01T09:40:09.089Z,1010.24
2019-05-01T09:41:04.948Z,1010.24
2019-05-01T09:42:06.610Z,1010.26
2019-05-01T09:43:04.947Z,1010.27
2019-05-01T09:44:05.906Z,1010.27
2019-05-01T09:45:04.952Z,1010.29
2019-05-01T09:46:04.946Z,1010.26
2019-05-01T09:47:04.948Z,1010.26
2019-05-01T09:48:04.949Z,1010.24
2019-05-01T09:49:04.957Z,1010.27
2019-05-01T09:50:04.954Z,1010.27
2019-05-01T09:51:05.423Z,1010.25
2019-05-01T09:52:04.957Z,1010.26
2019-05-01T09:53:04.959Z,1010.25
2019-05-01T09:54:05.701Z,1010.28
2019-05-01T09:55:04.957Z,1010.25
2019-05-01T09:56:07.761Z,1010.27
2019-05-01T09:57:04.963Z,1010.26
2019-05-01T09:58:04.961Z,1010.27
2019-05-01T09:59:04.963Z,1010.29
2019-05-01T10:00:04.968Z,1010.29
2019-05-01T10:01:04.968Z,1010.29
2019-05-01T10:02:07.798Z,1010.28
2019-05-01T10:03:04.972Z,1010.26
2019-05-01T10:04:05.679Z,1010.23
2019-05-01T10:05:06.720Z,1010.27
2019-05-01T10:06:04.974Z,1010.28
2019-05-01T10:07:04.976Z,1010.22
2019-05-01T10:08:05.450Z,1010.25
2019-05-01T10:09:04.979Z,1010.26
2019-05-01T10:10:04.982Z,1010.17
2019-05-01T10:11:06.746Z,1010.23
2019-05-01T10:12:04.980Z,1010.22
2019-05-01T10:13:04.980Z,1010.24
2019-05-01T10:14:04.984Z,1010.20
2019-05-01T10:15:05.796Z,1010.18
2019-05-01T10:16:04.985Z,1010.15
2019-05-01T10:17:04.989Z,1010.15
2019-05-01T10:18:04.992Z,1010.13
2019-05-01T10:19:04.992Z,1010.14
2019-05-01T10:20:04.999Z,1010.17
2019-05-01T10:21:04.999Z,1010.13
2019-05-01T10:22:04.999Z,1010.12
2019-05-01T10:23:07.847Z,1010.11
2019-05-01T10:24:05.002Z,1010.12
2019-05-01T10:25:08.645Z,1010.12
2019-05-01T10:26:05.009Z,1010.13
2019-05-01T10:27:05.012Z,1010.10
2019-05-01T10:28:07.349Z,1010.09
2019-05-01T10:29:05.016Z,1010.07
2019-05-01T10:30:05.022Z,1010.05
2019-05-01T10:31:06.995Z,1010.03
2019-05-01T10:32:05.022Z,1010.05
2019-05-01T10:33:05.030Z,1010.01
2019-05-01T10:34:07.651Z,1010.05
2019-05-01T10:35:05.034Z,1010.02
2019-05-01T10:36:05.034Z,1010.07
2019-05-01T10:37:05.042Z,1010.05
2019-05-01T10:38:09.297Z,1010.02
2019-05-01T10:39:05.045Z,1010.01
2019-05-01T10:40:05.054Z,1010.01
2019-05-01T10:41:09.100Z,1009.97
2019-05-01T10:42:05.060Z,1009.95
2019-05-01T10:43:05.064Z,1009.96
2019-05-01T10:44:05.078Z,1009.99
2019-05-01T10:45:05.076Z,1010.01
2019-05-01T10:46:05.088Z,1009.99
2019-05-01T10:47:05.089Z,1009.96
2019-05-01T10:48:05.098Z,1010.02
2019-05-01T10:49:05.105Z,1009.96
2019-05-01T10:50:05.111Z,1010.00
2019-05-01T10:51:05.127Z,1009.98
2019-05-01T10:52:14.045Z,1009.97
2019-05-01T10:53:05.138Z,1010.02
2019-05-01T10:54:05.144Z,1010.00
2019-05-01T10:55:05.151Z,1010.02
2019-05-01T10:56:05.183Z,1009.99
2019-05-01T10:57:05.169Z,1009.97
2019-05-01T10:58:05.177Z,1009.96
2019-05-01T10:59:05.188Z,1009.94
2019-05-01T11:00:05.194Z,1009.90
2019-05-01T11:01:05.202Z,1009.84
2019-05-01T11:02:05.207Z,1009.88
2019-05-01T11:03:05.219Z,1009.91
2019-05-01T11:04:05.228Z,1009.88
2019-05-01T11:05:05.233Z,1009.85
2019-05-01T11:06:05.244Z,1009.88
2019-05-01T11:07:05.259Z,1009.89
2019-05-01T11:08:05.258Z,1009.90
2019-05-01T11:09:05.271Z,1009.87
2019-05-01T11:10:05.280Z,1009.83
2019-05-01T11:11:05.284Z,1009.86
2019-05-01T11:12:05.298Z,1009.87
2019-05-01T11:13:07.677Z,1009.85
2019-05-01T11:14:05.314Z,1009.84
2019-05-01T11:15:05.332Z,1009.77
2019-05-01T11:16:05.337Z,1009.80
2019-05-01T11:17:05.346Z,1009.80
2019-05-01T11:18:05.363Z,1009.77
2019-05-01T11:19:05.374Z,1009.76
2019-05-01T11:20:05.382Z,1009.69
2019-05-01T11:21:05.391Z,1009.76
2019-05-01T11:22:05.398Z,1009.74
2019-05-01T11:23:05.415Z,1009.76
2019-05-01T11:24:05.426Z,1009.74
2019-05-01T11:25:05.433Z,1009.79
2019-05-01T11:26:05.447Z,1009.77
2019-05-01T11:27:05.455Z,1009.71
2019-05-01T11:28:05.465Z,1009.75
2019-05-01T11:29:05.476Z,1009.69
2019-05-01T11:30:05.491Z,1009.74
2019-05-01T11:31:05.554Z,1009.68
2019-05-01T11:32:05.514Z,1009.63
2019-05-01T11:33:05.515Z,1009.65
2019-05-01T11:34:05.532Z,1009.64
2019-05-01T11:35:05.539Z,1009.62
2019-05-01T11:36:09.520Z,1009.59
2019-05-01T11:37:05.554Z,1009.64
2019-05-01T11:38:05.575Z,1009.59
2019-05-01T11:39:05.572Z,1009.60
2019-05-01T11:40:05.585Z,1009.62
2019-05-01T11:41:09.088Z,1009.63
2019-05-01T11:42:05.602Z,1009.66
2019-05-01T11:43:05.610Z,1009.59
2019-05-01T11:44:05.624Z,1009.58
2019-05-01T11:45:05.630Z,1009.60
2019-05-01T11:46:05.639Z,1009.60
2019-05-01T11:47:05.651Z,1009.60
2019-05-01T11:48:05.659Z,1009.64
2019-05-01T11:49:05.677Z,1009.56
2019-05-01T11:50:05.684Z,1009.53
2019-05-01T11:51:05.691Z,1009.58
2019-05-01T11:52:05.706Z,1009.60
2019-05-01T11:53:05.715Z,1009.56
2019-05-01T11:54:05.732Z,1009.57
2019-05-01T11:55:05.742Z,1009.60
2019-05-01T11:56:05.751Z,1009.57
2019-05-01T11:57:05.761Z,1009.54
2019-05-01T11:58:05.774Z,1009.49
2019-05-01T11:59:05.786Z,1009.49
2019-05-01T12:00:05.798Z,1009.51
2019-05-01T12:01:05.807Z,1009.49
2019-05-01T12:02:05.813Z,1009.47
2019-05-01T12:03:05.821Z,1009.48
2019-05-01T12:04:05.838Z,1009.46
2019-05-01T12:05:05.849Z,1009.51
2019-05-01T12:06:05.856Z,1009.49